Terminal Aerodrome Forecast
Issued by NWS Albany, NY

Home | Current Version | Previous Version | Text Only | Print | Product List | Glossary On
Versions: 1 2 3 4 5 6 7 8 9 10 11 12 13 14 15 16 17 18
409
FTUS41 KALY 281731
TAFALB
TAF
KALB 281731Z 2818/2918 12009KT P6SM BKN040
     FM290100 06009KT P6SM SCT025 OVC040
     FM291400 07010KT P6SM OVC050=

USA.gov is the U.S. government's official web portal to all federal, state and local government web resources and services.